createdAt,value
2022-10-24T00:00:18.929Z,13.00
2022-10-24T00:03:09.149Z,13.50
2022-10-24T00:05:42.533Z,12.70
2022-10-24T00:08:12.629Z,12.50
2022-10-24T00:10:44.416Z,12.80
2022-10-24T00:13:17.681Z,12.90
2022-10-24T00:15:49.209Z,12.90
2022-10-24T00:18:18.148Z,12.10
2022-10-24T00:20:47.452Z,12.30
2022-10-24T00:23:17.018Z,11.90
2022-10-24T00:25:46.611Z,12.50
2022-10-24T00:28:16.585Z,12.00
2022-10-24T00:30:46.138Z,10.50
2022-10-24T00:33:15.126Z,11.40
2022-10-24T00:35:44.068Z,10.60
2022-10-24T00:38:13.142Z,10.30
2022-10-24T00:40:42.947Z,10.80
2022-10-24T00:43:16.842Z,10.60
2022-10-24T00:45:48.567Z,11.20
2022-10-24T00:48:21.406Z,10.30
2022-10-24T00:50:53.079Z,10.40
2022-10-24T00:53:24.877Z,10.10
2022-10-24T00:55:56.299Z,8.10
2022-10-24T00:58:28.546Z,8.10
2022-10-24T01:00:57.463Z,8.70
2022-10-24T01:03:26.886Z,7.70
2022-10-24T01:06:23.681Z,8.20
2022-10-24T01:08:58.834Z,7.40
2022-10-24T01:11:42.581Z,7.20
2022-10-24T01:14:21.779Z,7.30
2022-10-24T01:16:58.403Z,7.70
2022-10-24T01:19:42.355Z,7.40
2022-10-24T01:22:17.518Z,7.60
2022-10-24T01:24:56.522Z,8.60
2022-10-24T01:27:42.090Z,8.00
2022-10-24T01:30:12.430Z,8.20
2022-10-24T01:32:46.844Z,9.40
2022-10-24T01:35:25.514Z,10.10
2022-10-24T01:38:01.366Z,9.30
2022-10-24T01:40:34.154Z,9.10
2022-10-24T01:45:34.603Z,8.70
2022-10-24T01:48:07.461Z,9.00
2022-10-24T01:50:37.822Z,8.90
2022-10-24T01:53:08.543Z,9.70
2022-10-24T01:55:38.025Z,9.10
2022-10-24T01:58:07.939Z,9.00
2022-10-24T02:00:36.974Z,9.30
2022-10-24T02:03:12.172Z,9.40
2022-10-24T02:05:44.190Z,9.60
2022-10-24T02:08:16.114Z,10.10
2022-10-24T02:10:49.367Z,10.00
2022-10-24T02:13:26.421Z,10.00
2022-10-24T02:15:57.626Z,9.70
2022-10-24T02:18:26.899Z,10.20
2022-10-24T02:20:57.931Z,10.00
2022-10-24T02:23:34.175Z,9.50
2022-10-24T02:26:07.074Z,9.90
2022-10-24T02:28:41.018Z,10.10
2022-10-24T02:31:12.833Z,9.30
2022-10-24T02:33:42.172Z,8.70
2022-10-24T02:36:12.948Z,9.70
2022-10-24T02:38:44.632Z,8.90
2022-10-24T02:41:17.279Z,9.40
2022-10-24T02:46:14.919Z,9.30
2022-10-24T02:48:47.574Z,10.00
2022-10-24T02:51:18.769Z,9.60
2022-10-24T02:53:48.128Z,10.20
2022-10-24T02:56:17.046Z,9.80
2022-10-24T02:58:46.117Z,9.30
2022-10-24T03:01:15.152Z,9.40
2022-10-24T03:03:44.266Z,9.30
2022-10-24T03:06:13.299Z,9.80
2022-10-24T03:08:42.437Z,9.30
2022-10-24T03:11:11.514Z,9.20
2022-10-24T03:13:40.381Z,9.00
2022-10-24T03:16:11.717Z,9.40
2022-10-24T03:18:43.173Z,9.60
2022-10-24T03:21:12.185Z,9.10
2022-10-24T03:23:41.076Z,9.00
2022-10-24T03:26:09.957Z,8.80
2022-10-24T03:28:38.865Z,8.20
2022-10-24T03:31:08.004Z,8.70
2022-10-24T03:33:37.034Z,8.60
2022-10-24T03:36:06.805Z,8.80
2022-10-24T03:38:35.772Z,8.40
2022-10-24T03:41:05.245Z,9.30
2022-10-24T03:43:34.442Z,9.40
2022-10-24T03:46:03.644Z,9.00
2022-10-24T03:48:32.593Z,9.00
2022-10-24T03:51:01.534Z,8.40
2022-10-24T03:53:30.435Z,8.30
2022-10-24T03:56:00.061Z,8.40
2022-10-24T03:58:29.117Z,8.60
2022-10-24T04:00:58.844Z,8.80
2022-10-24T04:03:28.491Z,8.80
2022-10-24T04:05:57.521Z,8.30
2022-10-24T04:08:26.501Z,8.30
2022-10-24T04:10:55.704Z,8.70
2022-10-24T04:13:24.744Z,8.40
2022-10-24T04:15:53.876Z,9.00
2022-10-24T04:18:22.864Z,7.90
2022-10-24T04:20:51.817Z,8.60
2022-10-24T04:23:20.692Z,8.50
2022-10-24T04:25:49.995Z,8.70
2022-10-24T04:28:19.406Z,7.70
2022-10-24T04:30:56.239Z,7.90
2022-10-24T04:33:25.725Z,8.80
2022-10-24T04:35:55.184Z,8.50
2022-10-24T04:38:24.819Z,8.50
2022-10-24T04:40:56.862Z,8.10
2022-10-24T04:43:25.786Z,7.80
2022-10-24T04:45:54.589Z,7.60
2022-10-24T04:48:23.522Z,6.90
2022-10-24T04:50:52.316Z,7.80
2022-10-24T04:53:21.296Z,7.90
2022-10-24T04:55:50.202Z,7.30
2022-10-24T04:58:19.285Z,8.00
2022-10-24T05:00:49.749Z,7.70
2022-10-24T05:03:19.988Z,7.50
2022-10-24T05:05:49.178Z,6.80
2022-10-24T05:08:18.565Z,8.60
2022-10-24T05:10:48.225Z,8.60
2022-10-24T05:13:17.339Z,7.40
2022-10-24T05:15:46.169Z,7.10
2022-10-24T05:18:14.969Z,7.80
2022-10-24T05:20:43.760Z,7.70
2022-10-24T05:23:12.686Z,7.40
2022-10-24T05:25:41.596Z,7.10
2022-10-24T05:28:10.424Z,8.10
2022-10-24T05:30:39.431Z,7.30
2022-10-24T05:33:08.272Z,7.70
2022-10-24T05:35:37.465Z,8.10
2022-10-24T05:38:06.421Z,7.70
2022-10-24T05:40:35.413Z,7.40
2022-10-24T05:43:04.507Z,7.20
2022-10-24T05:45:33.396Z,7.90
2022-10-24T05:48:02.269Z,7.60
2022-10-24T05:50:31.198Z,7.60
2022-10-24T05:52:59.965Z,7.60
2022-10-24T05:55:30.725Z,7.90
2022-10-24T05:57:59.831Z,7.70
2022-10-24T06:00:28.975Z,7.50
2022-10-24T06:02:57.977Z,7.70
2022-10-24T06:05:27.002Z,7.90
2022-10-24T06:07:56.338Z,8.20
2022-10-24T06:10:25.793Z,7.90
2022-10-24T06:12:55.260Z,9.20
2022-10-24T06:15:24.853Z,7.80
2022-10-24T06:17:53.945Z,9.00
2022-10-24T06:20:22.770Z,7.50
2022-10-24T06:22:51.573Z,8.50
2022-10-24T06:25:20.546Z,8.50
2022-10-24T06:27:49.409Z,8.20
2022-10-24T06:30:18.720Z,8.10
2022-10-24T06:32:47.856Z,8.30
2022-10-24T06:35:18.570Z,8.70
2022-10-24T06:37:48.378Z,8.50
2022-10-24T06:40:19.949Z,8.80
2022-10-24T06:42:49.121Z,9.00
2022-10-24T06:45:20.727Z,8.40
2022-10-24T06:47:52.012Z,9.00
2022-10-24T06:50:32.015Z,10.30
2022-10-24T06:53:01.441Z,9.60
2022-10-24T06:55:30.326Z,9.10
2022-10-24T06:57:59.321Z,9.00
2022-10-24T07:03:02.239Z,10.00
2022-10-24T07:05:31.541Z,10.00
2022-10-24T07:08:00.686Z,10.60
2022-10-24T07:10:29.756Z,9.80
2022-10-24T07:12:59.095Z,10.80
2022-10-24T07:15:28.117Z,10.00
2022-10-24T07:17:59.980Z,9.10
2022-10-24T07:20:28.961Z,10.20
2022-10-24T07:22:57.874Z,9.50
2022-10-24T07:25:26.761Z,9.60
2022-10-24T07:27:56.873Z,9.70
2022-10-24T07:30:26.015Z,10.40
2022-10-24T07:32:55.477Z,10.20
2022-10-24T07:35:24.254Z,10.30
2022-10-24T07:37:53.489Z,10.70
2022-10-24T07:40:22.678Z,9.70
2022-10-24T07:42:51.560Z,10.90
2022-10-24T07:45:20.720Z,11.00
2022-10-24T07:47:49.643Z,10.40
2022-10-24T07:50:18.781Z,10.00
2022-10-24T07:52:47.598Z,9.30
2022-10-24T07:55:16.689Z,9.50
2022-10-24T07:57:45.711Z,10.50
2022-10-24T08:00:16.868Z,10.40
2022-10-24T08:02:45.688Z,11.00
2022-10-24T08:05:17.043Z,10.20
2022-10-24T08:07:56.262Z,10.70
2022-10-24T08:10:38.114Z,10.50
2022-10-24T08:13:10.318Z,10.70
2022-10-24T08:15:42.417Z,12.80
2022-10-24T08:18:11.323Z,11.50
2022-10-24T08:20:40.189Z,11.40
2022-10-24T08:23:09.378Z,11.80
2022-10-24T08:25:42.173Z,12.50
2022-10-24T08:28:11.519Z,11.10
2022-10-24T08:30:40.809Z,11.50
2022-10-24T08:33:09.757Z,11.30
2022-10-24T08:35:38.898Z,11.20
2022-10-24T08:38:08.455Z,11.60
2022-10-24T08:40:37.690Z,11.50
2022-10-24T08:43:06.881Z,12.40
2022-10-24T08:45:42.193Z,11.60
2022-10-24T08:48:14.694Z,11.50
2022-10-24T08:50:47.513Z,11.00
2022-10-24T08:53:21.576Z,11.70
2022-10-24T08:55:53.371Z,11.00
2022-10-24T08:58:25.141Z,11.80
2022-10-24T09:00:55.666Z,11.80
2022-10-24T09:03:43.846Z,10.10
2022-10-24T09:06:20.221Z,10.90
2022-10-24T09:08:53.206Z,11.30
2022-10-24T09:11:27.837Z,11.20
2022-10-24T09:13:57.449Z,11.20
2022-10-24T09:16:27.330Z,11.30
2022-10-24T09:18:58.054Z,12.70
2022-10-24T09:21:27.471Z,12.00
2022-10-24T09:23:56.797Z,11.80
2022-10-24T09:26:29.282Z,11.50
2022-10-24T09:28:59.249Z,9.70
2022-10-24T09:31:28.898Z,10.90
2022-10-24T09:33:59.919Z,10.90
2022-10-24T09:36:31.144Z,10.70
2022-10-24T09:39:24.993Z,11.50
2022-10-24T09:41:54.895Z,10.40
2022-10-24T09:44:37.840Z,11.20
2022-10-24T09:47:23.523Z,10.10
2022-10-24T09:49:53.908Z,9.20
2022-10-24T09:52:25.109Z,9.40
2022-10-24T09:55:16.361Z,8.70
2022-10-24T09:57:45.717Z,8.30
2022-10-24T10:00:24.103Z,8.50
2022-10-24T10:03:05.076Z,8.70
2022-10-24T10:05:46.074Z,8.10
2022-10-24T10:08:20.801Z,7.40
2022-10-24T10:11:01.501Z,7.90
2022-10-24T10:13:31.155Z,8.70
2022-10-24T10:16:01.822Z,8.00
2022-10-24T10:18:34.160Z,7.50
2022-10-24T10:21:09.945Z,7.00
2022-10-24T10:23:41.550Z,6.20
2022-10-24T10:26:27.984Z,6.00
2022-10-24T10:28:59.880Z,5.80
2022-10-24T10:31:34.904Z,5.40
2022-10-24T10:34:21.406Z,5.20
2022-10-24T10:37:26.992Z,5.30
2022-10-24T10:40:07.593Z,4.40
2022-10-24T10:42:46.617Z,4.20
2022-10-24T10:45:20.011Z,4.20
2022-10-24T10:48:01.963Z,4.40
2022-10-24T10:50:37.751Z,4.70
2022-10-24T10:53:21.688Z,4.50
2022-10-24T10:55:57.498Z,4.20
2022-10-24T10:58:38.947Z,4.50
2022-10-24T11:01:15.739Z,4.60
2022-10-24T11:04:13.989Z,4.90
2022-10-24T11:06:52.093Z,3.90
2022-10-24T11:09:29.127Z,4.00
2022-10-24T11:12:06.571Z,4.10
2022-10-24T11:14:38.228Z,4.10
2022-10-24T11:17:13.638Z,4.10
2022-10-24T11:19:49.535Z,3.50
2022-10-24T11:22:23.102Z,4.00
2022-10-24T11:24:58.853Z,3.40
2022-10-24T11:27:35.603Z,3.80
2022-10-24T11:30:11.597Z,3.30
2022-10-24T11:32:45.046Z,3.30
2022-10-24T11:35:20.030Z,3.40
2022-10-24T11:37:50.813Z,3.70
2022-10-24T11:40:21.764Z,3.50
2022-10-24T11:42:54.063Z,3.70
2022-10-24T11:45:26.411Z,3.40
2022-10-24T11:48:11.825Z,3.70
2022-10-24T11:50:47.801Z,3.10
2022-10-24T11:53:41.606Z,3.20
2022-10-24T11:56:33.428Z,3.00
2022-10-24T11:59:17.812Z,3.30
2022-10-24T12:02:18.803Z,3.40
2022-10-24T12:05:25.147Z,2.90
2022-10-24T12:08:49.713Z,3.10
2022-10-24T12:11:54.966Z,3.10
2022-10-24T12:14:53.368Z,3.30
2022-10-24T12:17:37.621Z,3.00
2022-10-24T12:20:12.070Z,2.90
2022-10-24T12:26:18.801Z,3.20
2022-10-24T12:28:59.712Z,3.10
2022-10-24T12:31:33.775Z,3.20
2022-10-24T12:34:55.146Z,3.20
2022-10-24T12:37:39.560Z,3.20
2022-10-24T12:40:52.894Z,3.00
2022-10-24T12:43:34.127Z,2.50
2022-10-24T12:46:43.771Z,2.90
2022-10-24T12:49:26.388Z,2.50
2022-10-24T12:51:59.684Z,2.40
2022-10-24T12:54:44.303Z,2.20
2022-10-24T12:57:31.722Z,2.40
2022-10-24T13:00:06.373Z,2.30
2022-10-24T13:02:59.383Z,2.40
2022-10-24T13:05:56.065Z,2.50
2022-10-24T13:08:57.341Z,3.00
2022-10-24T13:11:48.039Z,3.10
2022-10-24T13:14:50.306Z,2.60
2022-10-24T13:17:33.268Z,2.40
2022-10-24T13:20:36.314Z,2.70
2022-10-24T13:29:07.478Z,2.80
2022-10-24T13:31:50.010Z,2.70
2022-10-24T13:34:43.357Z,2.50
2022-10-24T13:37:25.287Z,2.70
2022-10-24T13:40:10.907Z,2.40
2022-10-24T13:42:53.110Z,2.40
2022-10-24T13:45:43.083Z,2.40
2022-10-24T13:48:25.303Z,3.20
2022-10-24T13:51:19.744Z,2.80
2022-10-24T13:53:57.028Z,2.80
2022-10-24T13:56:32.873Z,3.50
2022-10-24T13:59:08.310Z,2.50
2022-10-24T14:01:49.345Z,3.30
2022-10-24T14:04:42.828Z,2.50
2022-10-24T14:07:22.776Z,2.10
2022-10-24T14:09:58.920Z,2.70
2022-10-24T14:12:34.780Z,2.80
2022-10-24T14:15:16.749Z,3.20
2022-10-24T14:18:04.835Z,3.10
2022-10-24T14:20:39.873Z,3.20
2022-10-24T14:23:28.187Z,3.20
2022-10-24T14:26:10.080Z,2.90
2022-10-24T14:29:00.156Z,2.80
2022-10-24T14:31:37.662Z,3.00
2022-10-24T14:34:25.300Z,3.60
2022-10-24T14:37:19.538Z,3.10
2022-10-24T14:39:56.483Z,3.30
2022-10-24T14:42:51.797Z,3.30
2022-10-24T14:45:32.521Z,3.60
2022-10-24T14:48:25.255Z,4.00
2022-10-24T14:51:09.685Z,4.20
2022-10-24T14:53:43.799Z,4.50
2022-10-24T14:56:31.843Z,3.80
2022-10-24T14:59:17.618Z,3.50
2022-10-24T15:01:58.936Z,3.80
2022-10-24T15:04:39.645Z,4.60
2022-10-24T15:07:30.677Z,4.20
2022-10-24T15:10:21.949Z,4.80
2022-10-24T15:13:17.004Z,4.20
2022-10-24T15:15:56.732Z,4.60
2022-10-24T15:18:32.087Z,4.00
2022-10-24T15:21:15.686Z,4.70
2022-10-24T15:23:51.608Z,4.60
2022-10-24T15:26:27.833Z,4.90
2022-10-24T15:29:09.293Z,5.00
2022-10-24T15:31:44.008Z,5.50
2022-10-24T15:34:24.273Z,5.80
2022-10-24T15:37:11.357Z,5.20
2022-10-24T15:40:05.005Z,5.40
2022-10-24T15:42:47.456Z,5.60
2022-10-24T15:45:22.277Z,5.70
2022-10-24T15:47:55.319Z,6.10
2022-10-24T15:50:27.620Z,5.50
2022-10-24T15:53:05.475Z,6.20
2022-10-24T15:55:39.873Z,6.40
2022-10-24T15:58:16.288Z,6.70
2022-10-24T16:00:51.289Z,6.30
2022-10-24T16:03:27.093Z,7.10
2022-10-24T16:06:05.812Z,8.90
2022-10-24T16:08:40.860Z,6.70
2022-10-24T16:11:14.613Z,6.00
2022-10-24T16:13:47.695Z,6.90
2022-10-24T16:16:25.722Z,7.10
2022-10-24T16:19:03.216Z,7.40
2022-10-24T16:21:40.065Z,8.00
2022-10-24T16:24:17.642Z,7.20
2022-10-24T16:26:56.428Z,7.20
2022-10-24T16:29:33.670Z,6.40
2022-10-24T16:32:08.561Z,7.30
2022-10-24T16:34:51.043Z,7.60
2022-10-24T16:37:26.882Z,7.90
2022-10-24T16:40:00.003Z,7.70
2022-10-24T16:42:33.589Z,7.80
2022-10-24T16:45:07.322Z,7.50
2022-10-24T16:47:39.676Z,8.00
2022-10-24T16:52:47.209Z,7.30
2022-10-24T16:55:21.016Z,9.80
2022-10-24T16:57:53.635Z,7.70
2022-10-24T17:03:01.494Z,10.10
2022-10-24T17:05:34.634Z,9.00
2022-10-24T17:08:11.971Z,8.70
2022-10-24T17:10:49.747Z,9.60
2022-10-24T17:13:24.384Z,10.50
2022-10-24T17:16:00.389Z,11.10
2022-10-24T17:19:04.756Z,12.40
2022-10-24T17:21:43.260Z,11.10
2022-10-24T17:24:21.217Z,11.20
2022-10-24T17:26:56.516Z,12.80
2022-10-24T17:29:31.667Z,11.20
2022-10-24T17:32:06.196Z,10.70
2022-10-24T17:34:39.451Z,11.30
2022-10-24T17:37:20.121Z,11.20
2022-10-24T17:39:54.126Z,11.30
2022-10-24T17:42:27.265Z,13.00
2022-10-24T17:45:00.242Z,11.40
2022-10-24T17:47:34.427Z,12.20
2022-10-24T17:50:07.986Z,11.50
2022-10-24T17:52:44.010Z,11.10
2022-10-24T17:55:45.242Z,10.90
2022-10-24T17:58:29.116Z,12.20
2022-10-24T18:01:18.824Z,11.90
2022-10-24T18:03:53.087Z,12.70
2022-10-24T18:06:26.392Z,11.60
2022-10-24T18:09:10.608Z,10.90
2022-10-24T18:11:47.909Z,12.00
2022-10-24T18:14:20.254Z,10.50
2022-10-24T18:19:45.369Z,10.10
2022-10-24T18:22:18.531Z,11.80
2022-10-24T18:25:06.923Z,11.30
2022-10-24T18:28:02.496Z,11.60
2022-10-24T18:31:12.160Z,11.50
2022-10-24T18:33:56.020Z,10.80
2022-10-24T18:36:57.911Z,10.90
2022-10-24T18:40:12.751Z,11.80
2022-10-24T18:46:33.293Z,11.60
2022-10-24T18:49:15.822Z,11.70
2022-10-24T18:51:57.160Z,10.90
2022-10-24T19:08:20.309Z,12.90
2022-10-24T19:10:56.821Z,11.90
2022-10-24T19:16:48.373Z,11.50
2022-10-24T19:25:46.761Z,11.20
2022-10-24T19:28:21.020Z,11.10
2022-10-24T19:31:04.016Z,12.10
2022-10-24T19:33:44.375Z,12.50
2022-10-24T19:36:24.161Z,12.20
2022-10-24T19:39:01.350Z,12.60
2022-10-24T19:41:38.249Z,13.00
2022-10-24T19:44:14.212Z,12.30
2022-10-24T19:46:48.574Z,11.90
2022-10-24T19:52:02.296Z,11.00
2022-10-24T19:54:54.706Z,12.00
2022-10-24T19:57:29.626Z,12.10
2022-10-24T20:00:06.366Z,11.70
2022-10-24T20:02:39.289Z,12.10
2022-10-24T20:05:14.762Z,12.00
2022-10-24T20:07:52.132Z,11.00
2022-10-24T20:10:27.048Z,11.20
2022-10-24T20:13:03.064Z,11.00
2022-10-24T20:15:40.605Z,11.40
2022-10-24T20:18:16.019Z,10.70
2022-10-24T20:20:50.106Z,11.10
2022-10-24T20:26:01.001Z,10.70
2022-10-24T20:28:38.036Z,9.80
2022-10-24T20:31:20.029Z,10.20
2022-10-24T20:33:57.627Z,10.70
2022-10-24T20:36:31.586Z,11.40
2022-10-24T20:39:03.958Z,9.80
2022-10-24T20:41:36.572Z,10.20
2022-10-24T20:44:14.888Z,11.40
2022-10-24T20:46:55.562Z,10.50
2022-10-24T20:49:27.927Z,10.40
2022-10-24T20:54:31.387Z,10.10
2022-10-24T20:57:05.555Z,10.30
2022-10-24T20:59:39.167Z,10.50
2022-10-24T21:02:12.040Z,10.20
2022-10-24T21:04:44.241Z,9.80
2022-10-24T21:07:16.406Z,10.30
2022-10-24T21:09:48.684Z,8.90
2022-10-24T21:12:20.892Z,8.90
2022-10-24T21:14:53.213Z,7.50
2022-10-24T21:20:02.887Z,7.50
2022-10-24T21:22:35.163Z,7.50
2022-10-24T21:25:08.125Z,7.10
2022-10-24T21:27:40.413Z,7.60
2022-10-24T21:30:14.899Z,7.20
2022-10-24T21:32:47.335Z,6.90
2022-10-24T21:35:19.763Z,7.40
2022-10-24T21:40:22.696Z,7.70
2022-10-24T21:42:54.929Z,7.70
2022-10-24T21:45:27.102Z,7.00
2022-10-24T21:47:59.314Z,7.40
2022-10-24T21:50:31.700Z,7.30
2022-10-24T21:53:03.896Z,7.20
2022-10-24T21:55:36.021Z,8.00
2022-10-24T21:58:08.278Z,7.50
2022-10-24T22:00:40.520Z,7.20
2022-10-24T22:03:12.724Z,7.60
2022-10-24T22:15:04.029Z,7.70
2022-10-24T22:17:32.902Z,7.10
2022-10-24T22:20:01.638Z,7.20
2022-10-24T22:22:30.574Z,8.10
2022-10-24T22:24:59.312Z,7.60
2022-10-24T22:27:28.049Z,7.90
2022-10-24T22:29:56.785Z,7.60
2022-10-24T22:34:57.134Z,7.20
2022-10-24T22:37:29.246Z,8.00
2022-10-24T22:39:58.987Z,7.40
2022-10-24T22:42:28.594Z,7.80
2022-10-24T22:44:58.610Z,8.50
2022-10-24T22:48:02.471Z,8.40
2022-10-24T22:50:51.473Z,8.90
2022-10-24T22:53:22.873Z,8.90
2022-10-24T22:56:01.431Z,9.50
2022-10-24T22:58:31.317Z,9.30
2022-10-24T23:01:04.533Z,9.60
2022-10-24T23:03:41.054Z,10.70
2022-10-24T23:06:14.195Z,10.80
2022-10-24T23:08:44.039Z,10.00
2022-10-24T23:11:14.187Z,10.70
2022-10-24T23:13:44.124Z,10.40
2022-10-24T23:16:24.050Z,10.60
2022-10-24T23:18:53.933Z,11.00
2022-10-24T23:21:28.745Z,8.40
2022-10-24T23:23:58.408Z,10.60
2022-10-24T23:26:33.769Z,12.10
2022-10-24T23:29:09.040Z,13.60
2022-10-24T23:31:38.835Z,13.50
2022-10-24T23:34:10.348Z,13.90
2022-10-24T23:36:41.897Z,11.90
2022-10-24T23:39:11.730Z,10.30
2022-10-24T23:41:42.254Z,9.90
2022-10-24T23:44:12.367Z,11.00
2022-10-24T23:46:46.532Z,12.50
2022-10-24T23:49:23.099Z,12.50
2022-10-24T23:51:59.452Z,13.10
2022-10-24T23:54:32.610Z,13.60
2022-10-24T23:57:02.657Z,13.60
2022-10-24T23:59:31.380Z,13.90
